Time;durP1;ratioP1;P1;durP2;ratioP2;P2;SDS_P1;SDS_P2;PMS_P1;PMS_P2;Temp;Humidity;BMP_temperature;BMP_pressure;BME280_temperature;BME280_humidity;BME280_pressure;Samples;Min_cycle;Max_cycle;Signal;HPM_P1;HPM_P2
2021/06/16 00:02:03;;;;;;;3.80;2.40;;;17.50;76.80;;;;;;5053265;28;20549;-48
2021/06/16 00:04:30;;;;;;;3.20;2.00;;;17.30;76.40;;;;;;5053791;28;20446;-49
2021/06/16 00:06:57;;;;;;;4.43;1.60;;;17.60;76.70;;;;;;5035028;28;21010;-48
2021/06/16 00:09:23;;;;;;;4.47;2.20;;;17.40;76.60;;;;;;5052662;28;20998;-47
2021/06/16 00:11:51;;;;;;;8.83;1.90;;;17.50;76.60;;;;;;5052702;28;20431;-50
2021/06/16 00:14:19;;;;;;;4.57;2.13;;;17.30;76.20;;;;;;5052663;28;20435;-47
2021/06/16 00:16:46;;;;;;;2.53;1.60;;;17.40;76.20;;;;;;5052462;28;20553;-49
2021/06/16 00:19:13;;;;;;;4.17;2.33;;;17.40;75.80;;;;;;5052236;28;20423;-47
2021/06/16 00:21:40;;;;;;;3.90;2.20;;;17.20;75.60;;;;;;5034626;28;20446;-48
2021/06/16 00:24:07;;;;;;;5.27;1.87;;;17.20;75.40;;;;;;5052637;28;20443;-49
2021/06/16 00:26:34;;;;;;;5.53;2.10;;;17.60;75.70;;;;;;5052470;28;20461;-47
2021/06/16 00:29:01;;;;;;;5.13;2.17;;;17.40;75.20;;;;;;5052102;28;20482;-49
2021/06/16 00:31:29;;;;;;;3.27;1.70;;;17.40;75.10;;;;;;5052273;28;20578;-48
2021/06/16 00:33:56;;;;;;;3.20;1.90;;;17.20;74.70;;;;;;5052351;28;20438;-48
2021/06/16 00:36:22;;;;;;;2.93;1.57;;;17.70;75.00;;;;;;5052173;28;20430;-48
2021/06/16 00:38:49;;;;;;;5.40;1.57;;;17.10;74.30;;;;;;5052015;28;20449;-48
2021/06/16 00:41:16;;;;;;;2.50;1.40;;;17.20;74.20;;;;;;5052278;28;20433;-47
2021/06/16 00:43:42;;;;;;;3.53;1.80;;;17.20;74.10;;;;;;5052209;28;20430;-47
2021/06/16 00:46:09;;;;;;;2.43;1.67;;;17.20;74.10;;;;;;5051948;28;20461;-48
2021/06/16 00:48:37;;;;;;;2.37;1.40;;;17.00;73.90;;;;;;5051807;28;20444;-47
2021/06/16 00:51:04;;;;;;;4.47;1.70;;;17.10;74.10;;;;;;5052075;28;20590;-47
2021/06/16 00:53:31;;;;;;;3.17;1.77;;;17.10;74.90;;;;;;5057335;28;20923;-48
2021/06/16 00:55:57;;;;;;;3.90;1.93;;;17.00;73.90;;;;;;5034235;28;20451;-47
2021/06/16 00:58:25;;;;;;;3.97;1.77;;;17.00;74.00;;;;;;5051229;28;20640;-47
2021/06/16 01:00:57;;;;;;;6.20;1.87;;;17.00;74.10;;;;;;5051849;28;20439;-47
2021/06/16 01:03:46;;;;;;;2.07;1.50;;;17.00;74.10;;;;;;5052011;28;20480;-49
2021/06/16 01:06:20;;;;;;;4.70;1.63;;;17.10;74.20;;;;;;5034157;28;20451;-47
2021/06/16 01:08:56;;;;;;;3.47;2.10;;;16.90;73.90;;;;;;5051707;28;20437;-48
2021/06/16 01:11:24;;;;;;;3.30;1.67;;;16.80;73.90;;;;;;5051931;28;20430;-47
2021/06/16 01:13:53;;;;;;;2.20;1.43;;;16.70;73.80;;;;;;5051976;28;20431;-48
2021/06/16 01:16:27;;;;;;;3.93;2.33;;;16.50;73.60;;;;;;5051718;28;20466;-49
2021/06/16 01:18:58;;;;;;;7.13;2.00;;;16.70;73.80;;;;;;5051567;28;20449;-49
2021/06/16 01:21:26;;;;;;;2.73;1.70;;;16.90;74.00;;;;;;5051713;28;20435;-48
2021/06/16 01:24:03;;;;;;;4.73;1.90;;;16.90;73.90;;;;;;5051585;28;21022;-47
2021/06/16 01:26:34;;;;;;;3.57;2.20;;;16.70;73.70;;;;;;5051711;28;20488;-48
2021/06/16 01:29:08;;;;;;;3.13;1.40;;;16.70;73.80;;;;;;5051384;28;20438;-48
2021/06/16 01:31:34;;;;;;;3.00;1.63;;;16.70;73.80;;;;;;5051784;28;20435;-48
2021/06/16 01:34:02;;;;;;;4.17;1.90;;;16.80;73.90;;;;;;5051604;28;20437;-47
2021/06/16 01:36:30;;;;;;;3.00;1.57;;;16.80;73.90;;;;;;5051770;28;20802;-47
2021/06/16 01:38:57;;;;;;;7.57;1.97;;;17.10;74.30;;;;;;5051380;28;20458;-47
2021/06/16 01:41:24;;;;;;;5.07;1.70;;;16.60;73.70;;;;;;5051582;28;20441;-48
2021/06/16 01:43:55;;;;;;;3.27;1.83;;;16.90;74.20;;;;;;5051719;28;20522;-47
2021/06/16 01:46:24;;;;;;;4.80;2.40;;;16.70;74.10;;;;;;5051382;28;20431;-47
2021/06/16 01:48:51;;;;;;;7.40;1.97;;;16.40;73.70;;;;;;5051051;28;20436;-47
2021/06/16 01:51:19;;;;;;;5.67;1.90;;;16.40;73.70;;;;;;5051472;28;21018;-47
2021/06/16 01:53:47;;;;;;;4.27;2.07;;;16.60;74.50;;;;;;5051310;28;20925;-49
2021/06/16 01:56:14;;;;;;;3.57;1.93;;;16.60;74.20;;;;;;5051220;28;20441;-48
2021/06/16 01:58:44;;;;;;;4.43;2.00;;;16.60;74.30;;;;;;5033212;28;20953;-49
2021/06/16 02:01:13;;;;;;;6.63;2.33;;;16.20;73.90;;;;;;5051320;28;20530;-49
2021/06/16 02:03:40;;;;;;;3.57;1.70;;;16.50;74.30;;;;;;5051560;28;20934;-49
2021/06/16 02:06:07;;;;;;;4.83;1.50;;;16.50;74.40;;;;;;5051588;28;20431;-49
2021/06/16 02:08:37;;;;;;;5.00;2.10;;;16.50;74.50;;;;;;5054042;28;20849;-49
2021/06/16 02:11:05;;;;;;;3.53;1.77;;;16.50;74.40;;;;;;5053849;28;20478;-47
2021/06/16 02:13:39;;;;;;;2.90;2.00;;;16.50;74.50;;;;;;5054943;28;20432;-46
2021/06/16 02:16:08;;;;;;;4.80;1.83;;;16.70;74.80;;;;;;5055039;28;20791;-47
2021/06/16 02:18:41;;;;;;;8.83;2.07;;;16.50;74.60;;;;;;5054701;28;20942;-47
2021/06/16 02:21:08;;;;;;;6.13;2.67;;;16.40;74.60;;;;;;5037044;28;20819;-48
2021/06/16 02:23:35;;;;;;;3.10;1.57;;;16.20;74.40;;;;;;5036991;28;20446;-49
2021/06/16 02:26:03;;;;;;;7.70;2.10;;;16.40;74.60;;;;;;5055211;28;20430;-48
2021/06/16 02:28:29;;;;;;;4.50;2.30;;;16.40;74.70;;;;;;5054332;28;20453;-48
2021/06/16 02:30:57;;;;;;;2.90;2.03;;;16.30;74.70;;;;;;5054764;28;20522;-49
2021/06/16 02:33:23;;;;;;;5.83;1.90;;;16.30;74.70;;;;;;5054723;28;20441;-48
2021/06/16 02:35:52;;;;;;;4.47;2.20;;;16.30;74.70;;;;;;5054621;28;20537;-47
2021/06/16 02:38:22;;;;;;;6.70;1.77;;;16.80;75.40;;;;;;5054196;28;20482;-48
2021/06/16 02:40:50;;;;;;;3.50;2.07;;;16.30;74.90;;;;;;5054522;28;20420;-48
2021/06/16 02:43:21;;;;;;;4.20;2.00;;;16.30;74.90;;;;;;5054501;28;20434;-48
2021/06/16 02:45:49;;;;;;;4.73;2.00;;;16.30;75.00;;;;;;5054692;28;20443;-48
2021/06/16 02:48:17;;;;;;;4.73;1.83;;;16.20;75.00;;;;;;5054000;28;20451;-49
2021/06/16 02:50:46;;;;;;;4.30;2.13;;;16.30;75.20;;;;;;5054419;28;20481;-48
2021/06/16 02:53:17;;;;;;;2.33;1.40;;;15.80;74.70;;;;;;5054340;28;20433;-48
2021/06/16 02:55:47;;;;;;;5.90;2.03;;;16.20;75.20;;;;;;5054503;28;20446;-48
2021/06/16 02:58:16;;;;;;;2.00;1.57;;;16.20;75.20;;;;;;5035870;28;20550;-49
2021/06/16 03:00:45;;;;;;;4.60;2.10;;;16.20;75.20;;;;;;5054295;28;20613;-48
2021/06/16 03:03:13;;;;;;;6.60;1.93;;;16.20;75.30;;;;;;5054111;28;20779;-48
2021/06/16 03:05:41;;;;;;;5.00;1.60;;;16.20;75.30;;;;;;5053977;28;20796;-48
2021/06/16 03:08:09;;;;;;;4.53;1.63;;;16.20;75.40;;;;;;5053661;28;20811;-47
2021/06/16 03:10:39;;;;;;;6.10;2.50;;;16.20;75.50;;;;;;5054022;28;20488;-49
2021/06/16 03:13:06;;;;;;;4.13;1.70;;;16.20;75.50;;;;;;5053941;28;20435;-48
2021/06/16 03:15:34;;;;;;;5.27;2.00;;;16.20;75.50;;;;;;5053848;28;20433;-48
2021/06/16 03:18:01;;;;;;;5.20;2.27;;;16.40;75.80;;;;;;5053442;28;20982;-47
2021/06/16 03:20:31;;;;;;;6.23;2.30;;;16.40;75.80;;;;;;5053303;28;20438;-47
2021/06/16 03:23:00;;;;;;;3.07;1.80;;;16.40;76.00;;;;;;5042622;28;20993;-48
2021/06/16 03:25:27;;;;;;;3.67;2.00;;;16.30;75.90;;;;;;5054171;28;20439;-48
2021/06/16 03:27:56;;;;;;;3.97;1.63;;;16.30;75.90;;;;;;5053509;28;20460;-48
2021/06/16 03:30:24;;;;;;;2.93;1.60;;;16.30;75.90;;;;;;5053341;28;20557;-47
2021/06/16 03:32:53;;;;;;;5.43;2.10;;;16.40;76.00;;;;;;5035758;28;20482;-47
2021/06/16 03:35:21;;;;;;;5.63;1.97;;;16.20;75.70;;;;;;5053530;28;20430;-47
2021/06/16 03:37:48;;;;;;;5.83;2.30;;;16.40;75.80;;;;;;5053040;28;20959;-47
2021/06/16 03:40:16;;;;;;;3.90;1.77;;;16.40;75.70;;;;;;5053035;28;20426;-48
2021/06/16 03:42:44;;;;;;;4.53;1.90;;;16.40;75.70;;;;;;5053305;28;20450;-49
2021/06/16 03:45:12;;;;;;;2.33;2.07;;;16.40;75.50;;;;;;5053258;28;20473;-49
2021/06/16 03:47:44;;;;;;;4.20;2.00;;;16.70;75.80;;;;;;5053245;28;20533;-47
2021/06/16 03:50:15;;;;;;;4.93;2.10;;;16.60;75.40;;;;;;5052934;28;20478;-49
2021/06/16 03:52:43;;;;;;;4.60;1.70;;;16.60;75.40;;;;;;5053178;28;20435;-48
2021/06/16 03:55:11;;;;;;;5.30;2.83;;;16.70;75.10;;;;;;5053103;28;20439;-48
2021/06/16 03:57:38;;;;;;;4.13;2.30;;;16.70;75.00;;;;;;5052765;28;20472;-49
2021/06/16 04:00:07;;;;;;;3.20;2.00;;;16.80;75.00;;;;;;5052813;28;20445;-50
2021/06/16 04:02:36;;;;;;;4.70;1.97;;;16.80;74.70;;;;;;5052885;28;20427;-50
2021/06/16 04:05:06;;;;;;;3.73;2.20;;;17.00;74.70;;;;;;5052793;28;20434;-50
2021/06/16 04:07:35;;;;;;;5.47;2.53;;;17.00;74.30;;;;;;5052710;28;20813;-49
2021/06/16 04:10:02;;;;;;;9.30;2.20;;;17.20;74.30;;;;;;5052482;28;20435;-49
2021/06/16 04:12:29;;;;;;;5.67;1.77;;;17.30;74.10;;;;;;5053011;28;20767;-50
2021/06/16 04:14:56;;;;;;;3.73;2.10;;;17.30;73.40;;;;;;5052712;28;20928;-50
2021/06/16 04:17:24;;;;;;;3.10;1.90;;;18.10;74.00;;;;;;5052419;28;20459;-49
2021/06/16 04:19:53;;;;;;;6.40;2.60;;;17.80;72.60;;;;;;5052061;28;20438;-49
2021/06/16 04:22:20;;;;;;;5.37;2.47;;;17.80;72.20;;;;;;5052656;28;20886;-49
2021/06/16 04:24:47;;;;;;;4.57;2.47;;;17.90;71.80;;;;;;5052359;28;20434;-49
2021/06/16 04:27:14;;;;;;;3.47;2.10;;;18.10;71.70;;;;;;5052392;28;20451;-49
2021/06/16 04:29:41;;;;;;;3.10;2.10;;;18.30;71.40;;;;;;5052383;28;20466;-49
2021/06/16 04:32:09;;;;;;;3.57;1.77;;;18.40;70.60;;;;;;5052074;28;20490;-50
2021/06/16 04:34:36;;;;;;;3.53;1.73;;;18.60;70.10;;;;;;5052122;28;20485;-50
2021/06/16 04:37:05;;;;;;;5.37;2.83;;;18.70;69.50;;;;;;5053588;28;20456;-50
2021/06/16 04:39:32;;;;;;;4.20;1.83;;;18.80;69.20;;;;;;5051965;28;20447;-50
2021/06/16 04:41:58;;;;;;;2.20;1.70;;;18.90;68.50;;;;;;5052423;28;20429;-49
2021/06/16 04:44:25;;;;;;;4.63;1.90;;;19.20;68.60;;;;;;5052022;28;20831;-49
2021/06/16 04:46:52;;;;;;;3.90;2.23;;;19.10;68.10;;;;;;5052368;28;20464;-49
2021/06/16 04:49:18;;;;;;;3.47;2.20;;;19.30;68.00;;;;;;5051648;28;20434;-49
2021/06/16 04:51:45;;;;;;;5.03;3.20;;;19.40;67.50;;;;;;5051675;28;20477;-49
2021/06/16 04:54:13;;;;;;;4.00;1.80;;;19.60;67.00;;;;;;5051899;28;20437;-49
2021/06/16 04:56:41;;;;;;;7.40;2.10;;;19.70;66.20;;;;;;5052165;28;20563;-50
2021/06/16 04:59:07;;;;;;;10.60;2.40;;;19.80;65.80;;;;;;5051411;28;20456;-46
2021/06/16 05:01:35;;;;;;;3.17;1.87;;;20.00;65.40;;;;;;5051715;28;21002;-48
2021/06/16 05:04:02;;;;;;;4.20;2.00;;;20.10;64.90;;;;;;5051667;28;20426;-51
2021/06/16 05:06:29;;;;;;;4.57;2.07;;;20.10;64.40;;;;;;5051350;28;20447;-48
2021/06/16 05:08:55;;;;;;;4.47;2.77;;;20.30;64.20;;;;;;5051365;28;20442;-47
2021/06/16 05:11:24;;;;;;;5.27;2.30;;;20.20;63.60;;;;;;5051621;28;20568;-50
2021/06/16 05:13:50;;;;;;;4.60;2.40;;;20.30;63.60;;;;;;5051450;28;20521;-48
2021/06/16 05:16:17;;;;;;;4.73;1.57;;;20.10;63.30;;;;;;5051294;28;21006;-48
2021/06/16 05:18:46;;;;;;;4.47;1.50;;;20.40;63.30;;;;;;5051194;28;20442;-47
2021/06/16 05:21:13;;;;;;;4.20;2.00;;;20.40;63.00;;;;;;5051377;28;20462;-48
2021/06/16 05:23:40;;;;;;;4.50;2.03;;;20.50;62.50;;;;;;5051174;28;20770;-47
2021/06/16 05:26:07;;;;;;;8.13;1.70;;;20.60;62.10;;;;;;5051152;28;20434;-47
2021/06/16 05:28:35;;;;;;;4.10;2.40;;;20.60;61.90;;;;;;5032862;28;20455;-48
2021/06/16 05:31:02;;;;;;;4.47;2.00;;;20.60;61.60;;;;;;5051138;28;20475;-48
2021/06/16 05:33:28;;;;;;;8.00;2.30;;;20.70;61.60;;;;;;5050935;28;20860;-49
2021/06/16 05:35:55;;;;;;;4.30;1.97;;;20.60;61.40;;;;;;5050822;28;20438;-48
2021/06/16 05:38:22;;;;;;;2.93;1.87;;;20.50;61.00;;;;;;5050573;28;20456;-46
2021/06/16 05:40:49;;;;;;;4.07;1.70;;;20.70;60.90;;;;;;5050895;28;20442;-48
2021/06/16 05:43:16;;;;;;;4.83;2.17;;;20.80;60.80;;;;;;5051191;28;20434;-47
2021/06/16 05:45:44;;;;;;;10.47;2.47;;;20.60;60.10;;;;;;5054799;28;20431;-48
2021/06/16 05:48:10;;;;;;;3.63;1.60;;;21.00;59.90;;;;;;5054570;28;20448;-46
2021/06/16 05:50:37;;;;;;;5.80;2.20;;;21.10;59.80;;;;;;5055894;28;20505;-50
2021/06/16 05:53:04;;;;;;;7.43;1.97;;;21.20;59.60;;;;;;5055510;28;20809;-48
2021/06/16 05:55:31;;;;;;;7.13;2.33;;;21.20;58.90;;;;;;5054264;28;20916;-47
2021/06/16 05:57:58;;;;;;;7.93;1.70;;;21.20;58.50;;;;;;5054010;28;20570;-47
2021/06/16 06:00:25;;;;;;;2.27;1.20;;;21.30;58.50;;;;;;5036604;28;20547;-48
2021/06/16 06:02:53;;;;;;;5.53;1.53;;;21.40;58.10;;;;;;5054485;28;20474;-49
2021/06/16 06:05:21;;;;;;;3.83;1.93;;;21.50;57.90;;;;;;5054906;28;20905;-49
2021/06/16 06:07:48;;;;;;;3.90;1.80;;;21.60;57.80;;;;;;5054561;28;20870;-48
2021/06/16 06:10:15;;;;;;;5.47;1.47;;;21.70;57.90;;;;;;5054350;28;20447;-48
2021/06/16 06:12:42;;;;;;;4.80;1.93;;;21.80;58.20;;;;;;5054381;28;20490;-51
2021/06/16 06:15:10;;;;;;;5.93;1.90;;;21.90;58.40;;;;;;5054666;28;20442;-48
2021/06/16 06:17:37;;;;;;;3.30;1.50;;;22.00;58.30;;;;;;5054225;28;20460;-48
2021/06/16 06:20:06;;;;;;;4.80;1.80;;;21.90;58.30;;;;;;5053881;28;20436;-51
2021/06/16 06:22:33;;;;;;;4.40;1.70;;;21.80;58.00;;;;;;5054001;28;20455;-47
2021/06/16 06:25:00;;;;;;;3.20;1.50;;;21.70;58.20;;;;;;5054025;28;20437;-48
2021/06/16 06:27:27;;;;;;;5.40;1.90;;;21.70;58.10;;;;;;5036126;28;20508;-48
2021/06/16 06:29:54;;;;;;;4.00;1.60;;;22.00;58.10;;;;;;5053585;28;20447;-51
2021/06/16 06:32:20;;;;;;;6.07;1.80;;;21.80;57.90;;;;;;5054243;28;20491;-48
2021/06/16 06:34:47;;;;;;;3.60;1.50;;;21.80;57.50;;;;;;5054165;28;20935;-47
2021/06/16 06:37:15;;;;;;;3.23;1.47;;;21.80;57.70;;;;;;5053912;28;20791;-48
2021/06/16 06:39:42;;;;;;;6.90;1.43;;;21.80;57.60;;;;;;5053524;28;20837;-50
2021/06/16 06:42:09;;;;;;;4.47;1.70;;;21.90;57.40;;;;;;5053713;28;20942;-47
2021/06/16 06:44:35;;;;;;;6.63;1.50;;;21.90;57.30;;;;;;5053741;28;20433;-47
2021/06/16 06:47:03;;;;;;;5.87;1.93;;;22.00;57.30;;;;;;5053454;28;20828;-50
2021/06/16 06:49:29;;;;;;;9.17;1.87;;;22.00;57.50;;;;;;5053336;28;20492;-47
2021/06/16 06:51:56;;;;;;;8.67;2.10;;;21.90;57.50;;;;;;5053237;28;21004;-48
2021/06/16 06:54:24;;;;;;;4.17;2.13;;;21.90;57.70;;;;;;5053719;28;20461;-48
2021/06/16 06:56:51;;;;;;;4.33;1.97;;;21.90;57.80;;;;;;5052361;28;20456;-49
2021/06/16 06:59:18;;;;;;;4.23;1.90;;;21.90;58.10;;;;;;5053312;28;20494;-48
2021/06/16 07:01:46;;;;;;;3.57;1.73;;;21.80;58.20;;;;;;5053522;28;20516;-47
2021/06/16 07:04:12;;;;;;;4.83;1.70;;;21.80;58.50;;;;;;5054222;28;20985;-51
2021/06/16 07:06:39;;;;;;;3.57;1.50;;;21.80;58.60;;;;;;5055878;28;20924;-49
2021/06/16 07:09:08;;;;;;;4.70;1.40;;;21.90;58.60;;;;;;5052287;28;20897;-47
2021/06/16 07:11:36;;;;;;;4.73;1.60;;;21.90;58.50;;;;;;5053420;28;20558;-47
2021/06/16 07:14:05;;;;;;;6.93;2.43;;;22.00;58.50;;;;;;5053228;28;20435;-49
2021/06/16 07:16:32;;;;;;;5.10;1.73;;;21.90;58.40;;;;;;5035863;28;20551;-48
2021/06/16 07:18:58;;;;;;;5.20;2.10;;;21.80;58.50;;;;;;5053145;28;20456;-48
2021/06/16 07:21:25;;;;;;;6.73;1.80;;;21.80;58.60;;;;;;5052999;28;20446;-49
2021/06/16 07:23:52;;;;;;;7.33;1.60;;;21.80;58.80;;;;;;5053003;28;20526;-49
2021/06/16 07:26:19;;;;;;;4.90;1.57;;;21.80;58.90;;;;;;5053195;28;20939;-47
2021/06/16 07:28:47;;;;;;;5.17;1.83;;;21.90;58.90;;;;;;5052771;28;20433;-49
2021/06/16 07:31:13;;;;;;;4.77;1.40;;;22.00;58.80;;;;;;5052950;28;20499;-48
2021/06/16 07:33:40;;;;;;;5.30;1.93;;;22.00;58.80;;;;;;5053286;28;20428;-48
2021/06/16 07:36:07;;;;;;;7.13;1.83;;;22.10;58.90;;;;;;5052952;28;20951;-49
2021/06/16 07:38:34;;;;;;;3.23;1.63;;;22.10;58.90;;;;;;5052529;28;20439;-48
2021/06/16 07:41:02;;;;;;;6.23;2.30;;;22.10;58.90;;;;;;5052968;28;20437;-47
2021/06/16 07:43:28;;;;;;;2.83;1.50;;;22.20;59.10;;;;;;5053091;28;20810;-48
2021/06/16 07:45:56;;;;;;;4.43;1.83;;;22.20;59.10;;;;;;5053270;28;20433;-52
2021/06/16 07:48:23;;;;;;;9.40;1.70;;;22.20;59.20;;;;;;5052551;28;20989;-47
2021/06/16 07:50:50;;;;;;;5.57;1.80;;;22.30;59.20;;;;;;5052722;28;20600;-48
2021/06/16 07:53:16;;;;;;;3.80;1.50;;;22.30;59.20;;;;;;5052063;28;20476;-48
2021/06/16 07:55:43;;;;;;;4.37;1.90;;;22.20;59.40;;;;;;5052631;28;20521;-48
2021/06/16 07:58:10;;;;;;;3.77;2.03;;;22.20;59.60;;;;;;5052431;28;20472;-49
2021/06/16 08:00:37;;;;;;;3.60;1.90;;;22.30;59.80;;;;;;5052336;28;20753;-48
2021/06/16 08:03:05;;;;;;;3.33;1.77;;;22.20;59.80;;;;;;5052315;28;20849;-49
2021/06/16 08:05:33;;;;;;;3.00;1.67;;;22.30;60.00;;;;;;5052630;28;20441;-49
2021/06/16 08:07:59;;;;;;;4.47;1.90;;;22.30;60.20;;;;;;5051678;28;20462;-52
2021/06/16 08:10:27;;;;;;;4.40;1.63;;;22.30;60.40;;;;;;5052466;28;20536;-48
2021/06/16 08:12:54;;;;;;;4.73;2.27;;;22.30;60.30;;;;;;5034154;28;20596;-46
2021/06/16 08:15:21;;;;;;;5.63;2.00;;;22.30;60.30;;;;;;5052572;28;20446;-49
2021/06/16 08:17:50;;;;;;;4.80;1.80;;;22.20;60.30;;;;;;5051787;28;20453;-47
2021/06/16 08:20:18;;;;;;;8.47;2.10;;;22.20;60.90;;;;;;5055116;28;20899;-48
2021/06/16 08:22:46;;;;;;;4.63;2.40;;;22.30;61.90;;;;;;5052682;28;20549;-47
2021/06/16 08:25:13;;;;;;;8.70;2.27;;;22.40;62.80;;;;;;5034507;28;21041;-47
2021/06/16 08:27:41;;;;;;;3.40;2.27;;;22.40;62.90;;;;;;5034242;28;20481;-51
2021/06/16 08:30:09;;;;;;;3.43;1.73;;;22.50;62.50;;;;;;5051743;28;20445;-48
2021/06/16 08:32:36;;;;;;;7.07;2.17;;;22.50;62.20;;;;;;5051792;28;20506;-47
2021/06/16 08:35:03;;;;;;;4.53;2.30;;;22.50;62.50;;;;;;5051217;28;20433;-49
2021/06/16 08:37:31;;;;;;;8.40;2.30;;;22.50;62.50;;;;;;5051710;28;20453;-48
2021/06/16 08:39:58;;;;;;;7.97;2.10;;;22.50;62.50;;;;;;5051590;28;20883;-48
2021/06/16 08:42:26;;;;;;;3.57;1.90;;;22.60;62.40;;;;;;5051702;28;20446;-49
2021/06/16 08:44:53;;;;;;;12.33;2.27;;;22.40;61.90;;;;;;5054617;28;20483;-49
2021/06/16 08:47:21;;;;;;;4.83;2.97;;;22.60;61.90;;;;;;5027202;28;20585;-48
2021/06/16 08:49:48;;;;;;;2.90;1.60;;;22.60;61.90;;;;;;5047271;28;20953;-49
2021/06/16 08:52:15;;;;;;;6.60;2.43;;;22.60;61.80;;;;;;5050771;28;20542;-51
2021/06/16 08:54:43;;;;;;;9.50;2.60;;;22.70;61.90;;;;;;5051164;28;20432;-47
2021/06/16 08:57:10;;;;;;;8.20;1.93;;;22.70;61.50;;;;;;5050434;28;20475;-49
2021/06/16 08:59:36;;;;;;;6.03;2.20;;;22.70;61.20;;;;;;5050750;28;20439;-49
2021/06/16 09:02:03;;;;;;;3.60;2.17;;;22.80;61.40;;;;;;5050728;28;20540;-48
2021/06/16 09:04:44;;;;;;;4.13;2.20;;;22.80;61.40;;;;;;5050812;28;20974;-48
2021/06/16 09:07:16;;;;;;;4.73;2.50;;;22.80;61.30;;;;;;5050758;28;20560;-50
2021/06/16 09:09:44;;;;;;;2.63;1.60;;;22.80;61.10;;;;;;5050963;28;20537;-48
2021/06/16 09:12:16;;;;;;;4.40;1.90;;;22.90;60.90;;;;;;5034883;28;20472;-51
2021/06/16 09:14:53;;;;;;;7.83;2.00;;;22.90;60.60;;;;;;5051086;28;20528;-49
2021/06/16 09:17:22;;;;;;;13.00;2.37;;;23.00;60.60;;;;;;5050982;28;20565;-48
2021/06/16 09:19:57;;;;;;;4.57;2.33;;;23.00;60.40;;;;;;5050094;28;20453;-47
2021/06/16 09:22:32;;;;;;;4.03;2.20;;;23.00;60.10;;;;;;5050744;28;20434;-51
2021/06/16 09:25:03;;;;;;;4.57;2.33;;;23.00;59.90;;;;;;5032974;28;20877;-48
2021/06/16 09:27:57;;;;;;;3.97;2.40;;;22.70;59.70;;;;;;5050649;28;20462;-49
2021/06/16 09:30:39;;;;;;;3.97;2.07;;;23.00;60.00;;;;;;5023180;28;20468;-52
2021/06/16 09:33:12;;;;;;;2.90;1.87;;;23.00;59.80;;;;;;5051012;28;20974;-49
2021/06/16 09:35:41;;;;;;;4.93;2.30;;;23.00;59.80;;;;;;5051467;28;20444;-49
2021/06/16 09:38:12;;;;;;;6.07;2.77;;;23.00;59.90;;;;;;5048920;28;20465;-48
2021/06/16 09:40:45;;;;;;;4.27;2.40;;;23.10;60.00;;;;;;5038529;28;20612;-47
2021/06/16 09:43:14;;;;;;;9.03;2.03;;;23.10;59.70;;;;;;5050937;28;20934;-51
2021/06/16 09:45:43;;;;;;;3.07;1.57;;;23.20;59.50;;;;;;5032685;28;20808;-47
2021/06/16 09:48:32;;;;;;;4.77;2.20;;;23.20;59.60;;;;;;5034264;28;21033;-49
2021/06/16 09:51:14;;;;;;;4.17;2.07;;;23.20;59.20;;;;;;5051265;28;20461;-48
2021/06/16 09:54:12;;;;;;;7.17;2.07;;;23.20;59.20;;;;;;5050555;28;20565;-49
2021/06/16 09:56:43;;;;;;;2.53;1.87;;;23.20;58.90;;;;;;5038667;28;20497;-48
2021/06/16 09:59:10;;;;;;;3.27;1.80;;;23.20;58.80;;;;;;5049958;28;20450;-49
2021/06/16 10:01:51;;;;;;;7.00;3.80;;;23.20;58.80;;;;;;5032523;28;20463;-48
2021/06/16 10:04:40;;;;;;;5.30;2.30;;;23.30;58.70;;;;;;5017514;28;20456;-47
2021/06/16 10:07:12;;;;;;;6.80;2.30;;;23.30;58.10;;;;;;5050542;28;20462;-49
2021/06/16 10:09:40;;;;;;;6.13;2.20;;;23.40;58.10;;;;;;5050264;28;20447;-48
2021/06/16 10:12:08;;;;;;;3.87;2.10;;;23.30;58.10;;;;;;5050173;28;20824;-49
2021/06/16 10:14:35;;;;;;;4.73;2.10;;;23.30;58.00;;;;;;5050336;28;20430;-48
2021/06/16 10:17:02;;;;;;;4.00;1.60;;;23.30;58.00;;;;;;5049796;28;20467;-48
2021/06/16 10:19:29;;;;;;;6.93;2.33;;;23.30;57.30;;;;;;5049458;28;20478;-48
2021/06/16 10:21:56;;;;;;;5.73;1.93;;;23.30;57.00;;;;;;5050266;28;20443;-48
2021/06/16 10:24:23;;;;;;;3.80;2.00;;;23.30;56.70;;;;;;5050254;28;20474;-47
2021/06/16 10:26:54;;;;;;;4.93;1.90;;;23.30;56.80;;;;;;5032089;28;20475;-48
2021/06/16 10:29:27;;;;;;;5.03;2.17;;;23.40;56.90;;;;;;5045689;28;20921;-48
2021/06/16 10:31:55;;;;;;;4.70;2.20;;;23.40;57.20;;;;;;5052449;28;20786;-48
2021/06/16 10:34:22;;;;;;;3.50;2.17;;;23.40;57.00;;;;;;5054448;28;20432;-47
2021/06/16 10:37:04;;;;;;;9.03;2.33;;;23.50;56.90;;;;;;5053923;28;20548;-48
2021/06/16 10:39:31;;;;;;;5.60;2.57;;;23.50;56.90;;;;;;5053503;28;20443;-47
2021/06/16 10:42:00;;;;;;;3.30;1.73;;;23.50;56.90;;;;;;5053558;28;20459;-49
2021/06/16 10:44:31;;;;;;;3.17;2.07;;;23.60;56.50;;;;;;5053217;28;20441;-49
2021/06/16 10:46:59;;;;;;;4.37;2.17;;;23.60;56.10;;;;;;5054601;28;20473;-50
2021/06/16 10:49:53;;;;;;;4.13;2.03;;;23.70;56.10;;;;;;5054003;28;20490;-49
2021/06/16 10:52:22;;;;;;;2.60;2.00;;;23.70;56.20;;;;;;5038312;28;20518;-50
2021/06/16 10:54:58;;;;;;;10.53;2.30;;;23.70;56.30;;;;;;5053603;28;20600;-49
2021/06/16 10:57:25;;;;;;;8.27;2.40;;;23.70;56.50;;;;;;5035006;28;20485;-47
2021/06/16 11:00:23;;;;;;;9.07;2.17;;;23.70;56.30;;;;;;5052721;28;20443;-49
2021/06/16 11:02:53;;;;;;;5.70;2.43;;;23.80;56.00;;;;;;5053343;28;20530;-49
2021/06/16 11:05:21;;;;;;;4.70;2.20;;;23.80;56.20;;;;;;5053105;28;20436;-48
2021/06/16 11:07:48;;;;;;;7.10;2.50;;;23.80;55.80;;;;;;5035130;28;20479;-50
2021/06/16 11:10:15;;;;;;;7.17;2.17;;;23.90;56.30;;;;;;5034635;28;20464;-48
2021/06/16 11:12:44;;;;;;;2.63;1.80;;;23.90;56.20;;;;;;5035307;28;20551;-47
2021/06/16 11:15:12;;;;;;;3.77;2.27;;;23.90;56.10;;;;;;5052975;28;20440;-49
2021/06/16 11:17:48;;;;;;;4.13;2.20;;;24.00;56.00;;;;;;5052625;28;20471;-48
2021/06/16 11:20:22;;;;;;;5.03;2.13;;;24.00;56.00;;;;;;5037464;28;20895;-49
2021/06/16 11:22:51;;;;;;;4.47;2.00;;;24.00;55.90;;;;;;5052787;28;20442;-49
2021/06/16 11:25:40;;;;;;;6.87;2.80;;;24.10;56.00;;;;;;5052438;28;20471;-51
2021/06/16 11:28:12;;;;;;;3.07;1.80;;;24.20;55.80;;;;;;5052291;28;20478;-56
2021/06/16 11:30:48;;;;;;;4.37;2.50;;;24.20;55.80;;;;;;5052805;28;20499;-48
2021/06/16 11:33:27;;;;;;;7.87;2.53;;;24.20;55.70;;;;;;5052309;28;20549;-48
2021/06/16 11:35:58;;;;;;;4.33;2.30;;;24.20;55.60;;;;;;5052278;28;20862;-51
2021/06/16 11:38:30;;;;;;;8.60;2.33;;;24.00;55.70;;;;;;5052370;28;20453;-49
2021/06/16 11:40:59;;;;;;;6.63;2.67;;;24.20;55.80;;;;;;5052337;28;20535;-48
2021/06/16 11:43:30;;;;;;;6.10;3.67;;;24.20;55.80;;;;;;5052285;28;20484;-48
2021/06/16 11:45:57;;;;;;;6.03;2.37;;;24.20;55.80;;;;;;5052515;28;20823;-49
2021/06/16 11:48:25;;;;;;;6.03;2.10;;;24.20;55.80;;;;;;5034006;28;20507;-48
2021/06/16 11:50:52;;;;;;;4.37;2.20;;;24.20;55.90;;;;;;5052519;28;20528;-47
2021/06/16 11:53:26;;;;;;;6.70;4.33;;;24.30;55.90;;;;;;5051709;28;20486;-48
2021/06/16 11:55:53;;;;;;;7.73;3.13;;;24.30;55.60;;;;;;5052340;28;20442;-48
2021/06/16 11:58:25;;;;;;;4.20;2.10;;;24.30;55.70;;;;;;5051772;28;20484;-49
2021/06/16 12:00:53;;;;;;;3.00;2.30;;;24.30;55.60;;;;;;5055012;28;20507;-48
2021/06/16 12:03:20;;;;;;;5.23;2.60;;;24.40;55.50;;;;;;5052496;28;20439;-49
2021/06/16 12:05:59;;;;;;;12.77;11.33;;;24.40;55.40;;;;;;5068999;22;20422;-55
2021/06/16 12:08:26;;;;;;;4.67;2.17;;;24.40;55.20;;;;;;5069382;28;20463;-56
2021/06/16 12:10:53;;;;;;;4.77;2.50;;;24.50;55.50;;;;;;5072101;28;20498;-55
2021/06/16 12:13:20;;;;;;;3.80;2.00;;;24.50;55.30;;;;;;5071710;28;20471;-55
2021/06/16 12:15:46;;;;;;;4.83;2.10;;;24.60;55.30;;;;;;5071776;28;20461;-55
2021/06/16 12:18:14;;;;;;;3.10;2.07;;;24.70;55.40;;;;;;5071604;28;20468;-55
2021/06/16 12:20:43;;;;;;;5.90;2.60;;;25.20;55.60;;;;;;5072089;28;20425;-55
2021/06/16 12:23:22;;;;;;;3.10;2.17;;;24.70;55.20;;;;;;5071727;28;20440;-56
2021/06/16 12:25:50;;;;;;;4.67;2.20;;;24.70;55.10;;;;;;5071606;28;20568;-54
2021/06/16 12:28:17;;;;;;;5.27;2.40;;;24.70;55.00;;;;;;5071252;28;20530;-55
2021/06/16 12:30:45;;;;;;;3.40;1.80;;;24.70;55.20;;;;;;5071178;28;20430;-54
2021/06/16 12:33:17;;;;;;;5.40;2.87;;;24.80;55.10;;;;;;5071231;28;20483;-54
2021/06/16 12:35:54;;;;;;;5.03;1.80;;;24.70;55.20;;;;;;5070969;28;20464;-54
2021/06/16 12:38:39;;;;;;;7.13;2.73;;;24.80;55.40;;;;;;5070867;28;20520;-54
2021/06/16 12:41:26;;;;;;;5.27;2.20;;;24.90;55.30;;;;;;5068227;28;20460;-54
2021/06/16 12:43:54;;;;;;;4.90;2.40;;;24.90;55.10;;;;;;5071109;28;20430;-56
2021/06/16 12:46:21;;;;;;;4.87;2.43;;;24.90;55.10;;;;;;5070874;28;20482;-54
2021/06/16 12:48:47;;;;;;;3.73;2.20;;;24.90;55.10;;;;;;5069874;28;20429;-56
2021/06/16 12:51:14;;;;;;;5.27;2.60;;;25.00;55.00;;;;;;5049070;28;20676;-54
2021/06/16 12:53:44;;;;;;;6.90;2.37;;;25.00;54.80;;;;;;5069919;28;20477;-54
2021/06/16 12:56:12;;;;;;;5.70;2.13;;;25.00;54.80;;;;;;5051962;28;20476;-54